sensor_id;sensor_type;location;lat;lon;timestamp;P1;durP1;ratioP1;P2;durP2;ratioP2
77733;SDS011;66902;41.720;44.796;2023-05-19T00:01:51;12.60;;;3.80;;
77733;SDS011;66902;41.720;44.796;2023-05-19T00:04:26;5.60;;;3.40;;
77733;SDS011;66902;41.720;44.796;2023-05-19T00:07:01;12.20;;;4.20;;
77733;SDS011;66902;41.720;44.796;2023-05-19T00:09:37;7.00;;;4.00;;
77733;SDS011;66902;41.720;44.796;2023-05-19T00:12:13;5.70;;;4.20;;
77733;SDS011;66902;41.720;44.796;2023-05-19T00:14:47;5.30;;;3.60;;
77733;SDS011;66902;41.720;44.796;2023-05-19T00:17:23;8.20;;;3.10;;
77733;SDS011;66902;41.720;44.796;2023-05-19T00:19:57;5.20;;;3.30;;
77733;SDS011;66902;41.720;44.796;2023-05-19T00:22:36;6.00;;;2.30;;
77733;SDS011;66902;41.720;44.796;2023-05-19T00:25:10;3.70;;;2.40;;
77733;SDS011;66902;41.720;44.796;2023-05-19T00:27:43;11.70;;;4.00;;
77733;SDS011;66902;41.720;44.796;2023-05-19T00:30:17;8.40;;;3.10;;
77733;SDS011;66902;41.720;44.796;2023-05-19T00:32:52;4.80;;;2.60;;
77733;SDS011;66902;41.720;44.796;2023-05-19T00:35:27;6.40;;;2.40;;
77733;SDS011;66902;41.720;44.796;2023-05-19T00:38:00;4.50;;;2.70;;
77733;SDS011;66902;41.720;44.796;2023-05-19T00:40:35;2.80;;;2.40;;
77733;SDS011;66902;41.720;44.796;2023-05-19T00:43:12;4.50;;;3.30;;
77733;SDS011;66902;41.720;44.796;2023-05-19T00:45:46;7.10;;;3.60;;
77733;SDS011;66902;41.720;44.796;2023-05-19T00:48:19;3.90;;;3.30;;
77733;SDS011;66902;41.720;44.796;2023-05-19T00:50:54;5.40;;;4.40;;
77733;SDS011;66902;41.720;44.796;2023-05-19T00:53:33;9.80;;;5.30;;
77733;SDS011;66902;41.720;44.796;2023-05-19T00:56:07;4.60;;;3.50;;
77733;SDS011;66902;41.720;44.796;2023-05-19T00:58:41;10.90;;;4.50;;
77733;SDS011;66902;41.720;44.796;2023-05-19T01:01:16;7.70;;;3.90;;
77733;SDS011;66902;41.720;44.796;2023-05-19T01:03:50;5.80;;;4.20;;
77733;SDS011;66902;41.720;44.796;2023-05-19T01:06:26;4.60;;;3.70;;
77733;SDS011;66902;41.720;44.796;2023-05-19T01:09:00;5.40;;;4.30;;
77733;SDS011;66902;41.720;44.796;2023-05-19T01:11:33;7.60;;;3.90;;
77733;SDS011;66902;41.720;44.796;2023-05-19T01:14:07;6.10;;;4.60;;
77733;SDS011;66902;41.720;44.796;2023-05-19T01:16:44;9.20;;;4.10;;
77733;SDS011;66902;41.720;44.796;2023-05-19T01:22:30;5.10;;;3.30;;
77733;SDS011;66902;41.720;44.796;2023-05-19T01:25:19;5.80;;;2.80;;
77733;SDS011;66902;41.720;44.796;2023-05-19T01:28:09;11.10;;;3.90;;
77733;SDS011;66902;41.720;44.796;2023-05-19T01:30:55;5.00;;;3.10;;
77733;SDS011;66902;41.720;44.796;2023-05-19T01:33:30;8.40;;;3.90;;
77733;SDS011;66902;41.720;44.796;2023-05-19T01:36:05;8.60;;;3.50;;
77733;SDS011;66902;41.720;44.796;2023-05-19T01:38:40;5.20;;;3.30;;
77733;SDS011;66902;41.720;44.796;2023-05-19T01:41:15;7.40;;;4.10;;
77733;SDS011;66902;41.720;44.796;2023-05-19T01:43:49;6.20;;;3.60;;
77733;SDS011;66902;41.720;44.796;2023-05-19T01:46:26;7.50;;;3.20;;
77733;SDS011;66902;41.720;44.796;2023-05-19T01:48:59;5.10;;;3.50;;
77733;SDS011;66902;41.720;44.796;2023-05-19T01:51:35;9.60;;;2.80;;
77733;SDS011;66902;41.720;44.796;2023-05-19T01:54:10;5.50;;;3.30;;
77733;SDS011;66902;41.720;44.796;2023-05-19T01:56:45;6.40;;;3.20;;
77733;SDS011;66902;41.720;44.796;2023-05-19T01:59:26;5.70;;;2.70;;
77733;SDS011;66902;41.720;44.796;2023-05-19T02:02:09;6.80;;;2.70;;
77733;SDS011;66902;41.720;44.796;2023-05-19T02:04:49;5.20;;;2.60;;
77733;SDS011;66902;41.720;44.796;2023-05-19T02:07:29;5.70;;;3.30;;
77733;SDS011;66902;41.720;44.796;2023-05-19T02:10:09;7.40;;;4.60;;
77733;SDS011;66902;41.720;44.796;2023-05-19T02:12:45;5.20;;;3.30;;
77733;SDS011;66902;41.720;44.796;2023-05-19T02:15:21;8.10;;;4.30;;
77733;SDS011;66902;41.720;44.796;2023-05-19T02:17:57;8.50;;;3.10;;
77733;SDS011;66902;41.720;44.796;2023-05-19T02:20:33;10.20;;;5.00;;
77733;SDS011;66902;41.720;44.796;2023-05-19T02:23:07;6.40;;;3.80;;
77733;SDS011;66902;41.720;44.796;2023-05-19T02:25:41;6.60;;;3.30;;
77733;SDS011;66902;41.720;44.796;2023-05-19T02:28:15;5.00;;;3.70;;
77733;SDS011;66902;41.720;44.796;2023-05-19T02:30:49;6.90;;;3.60;;
77733;SDS011;66902;41.720;44.796;2023-05-19T02:33:23;5.30;;;3.40;;
77733;SDS011;66902;41.720;44.796;2023-05-19T02:36:00;4.10;;;3.70;;
77733;SDS011;66902;41.720;44.796;2023-05-19T02:38:33;8.40;;;3.80;;
77733;SDS011;66902;41.720;44.796;2023-05-19T02:41:07;5.20;;;3.40;;
77733;SDS011;66902;41.720;44.796;2023-05-19T02:43:41;12.80;;;4.50;;
77733;SDS011;66902;41.720;44.796;2023-05-19T02:46:15;5.60;;;3.90;;
77733;SDS011;66902;41.720;44.796;2023-05-19T02:48:49;6.50;;;3.10;;
77733;SDS011;66902;41.720;44.796;2023-05-19T02:51:23;9.80;;;4.30;;
77733;SDS011;66902;41.720;44.796;2023-05-19T02:53:57;4.70;;;3.50;;
77733;SDS011;66902;41.720;44.796;2023-05-19T02:56:32;9.10;;;4.20;;
77733;SDS011;66902;41.720;44.796;2023-05-19T02:59:06;7.60;;;3.70;;
77733;SDS011;66902;41.720;44.796;2023-05-19T03:01:40;7.30;;;3.80;;
77733;SDS011;66902;41.720;44.796;2023-05-19T03:04:13;13.30;;;5.20;;
77733;SDS011;66902;41.720;44.796;2023-05-19T03:06:48;9.50;;;3.70;;
77733;SDS011;66902;41.720;44.796;2023-05-19T03:09:23;13.20;;;4.40;;
77733;SDS011;66902;41.720;44.796;2023-05-19T03:11:57;11.50;;;4.40;;
77733;SDS011;66902;41.720;44.796;2023-05-19T03:14:33;8.50;;;4.60;;
77733;SDS011;66902;41.720;44.796;2023-05-19T03:17:08;14.00;;;4.40;;
77733;SDS011;66902;41.720;44.796;2023-05-19T03:19:42;8.00;;;4.60;;
77733;SDS011;66902;41.720;44.796;2023-05-19T03:22:16;12.90;;;4.90;;
77733;SDS011;66902;41.720;44.796;2023-05-19T03:24:49;6.10;;;5.00;;
77733;SDS011;66902;41.720;44.796;2023-05-19T03:27:23;10.10;;;5.10;;
77733;SDS011;66902;41.720;44.796;2023-05-19T03:29:57;9.40;;;5.20;;
77733;SDS011;66902;41.720;44.796;2023-05-19T03:32:35;11.70;;;4.30;;
77733;SDS011;66902;41.720;44.796;2023-05-19T03:35:09;10.20;;;6.00;;
77733;SDS011;66902;41.720;44.796;2023-05-19T03:37:42;17.60;;;5.30;;
77733;SDS011;66902;41.720;44.796;2023-05-19T03:40:19;18.40;;;5.30;;
77733;SDS011;66902;41.720;44.796;2023-05-19T03:42:53;6.80;;;4.10;;
77733;SDS011;66902;41.720;44.796;2023-05-19T03:45:27;6.40;;;4.70;;
77733;SDS011;66902;41.720;44.796;2023-05-19T03:48:00;10.70;;;6.50;;
77733;SDS011;66902;41.720;44.796;2023-05-19T03:50:35;6.80;;;5.00;;
77733;SDS011;66902;41.720;44.796;2023-05-19T03:53:08;8.40;;;5.10;;
77733;SDS011;66902;41.720;44.796;2023-05-19T03:55:43;8.10;;;5.00;;
77733;SDS011;66902;41.720;44.796;2023-05-19T03:58:17;8.10;;;5.60;;
77733;SDS011;66902;41.720;44.796;2023-05-19T04:00:51;10.50;;;5.40;;
77733;SDS011;66902;41.720;44.796;2023-05-19T04:03:25;8.50;;;6.50;;
77733;SDS011;66902;41.720;44.796;2023-05-19T04:05:59;11.50;;;6.80;;
77733;SDS011;66902;41.720;44.796;2023-05-19T04:08:32;24.20;;;11.90;;
77733;SDS011;66902;41.720;44.796;2023-05-19T04:11:06;12.00;;;8.50;;
77733;SDS011;66902;41.720;44.796;2023-05-19T04:13:40;9.90;;;4.90;;
77733;SDS011;66902;41.720;44.796;2023-05-19T04:16:14;8.20;;;7.30;;
77733;SDS011;66902;41.720;44.796;2023-05-19T04:18:48;11.20;;;9.00;;
77733;SDS011;66902;41.720;44.796;2023-05-19T04:21:22;10.70;;;5.30;;
77733;SDS011;66902;41.720;44.796;2023-05-19T04:23:56;7.70;;;4.10;;
77733;SDS011;66902;41.720;44.796;2023-05-19T04:26:30;7.40;;;4.80;;
77733;SDS011;66902;41.720;44.796;2023-05-19T04:29:03;5.00;;;2.70;;
77733;SDS011;66902;41.720;44.796;2023-05-19T04:31:39;4.00;;;3.10;;
77733;SDS011;66902;41.720;44.796;2023-05-19T04:34:14;4.60;;;2.20;;
77733;SDS011;66902;41.720;44.796;2023-05-19T04:36:50;5.20;;;3.30;;
77733;SDS011;66902;41.720;44.796;2023-05-19T04:39:24;4.50;;;4.00;;
77733;SDS011;66902;41.720;44.796;2023-05-19T04:41:58;8.60;;;3.90;;
77733;SDS011;66902;41.720;44.796;2023-05-19T04:44:33;4.30;;;3.30;;
77733;SDS011;66902;41.720;44.796;2023-05-19T04:47:09;9.60;;;4.20;;
77733;SDS011;66902;41.720;44.796;2023-05-19T04:49:43;4.50;;;4.10;;
77733;SDS011;66902;41.720;44.796;2023-05-19T04:52:17;4.80;;;4.30;;
77733;SDS011;66902;41.720;44.796;2023-05-19T04:54:52;5.90;;;4.30;;
77733;SDS011;66902;41.720;44.796;2023-05-19T04:57:27;10.60;;;4.50;;
77733;SDS011;66902;41.720;44.796;2023-05-19T05:00:01;10.20;;;4.60;;
77733;SDS011;66902;41.720;44.796;2023-05-19T05:02:37;6.00;;;4.30;;
77733;SDS011;66902;41.720;44.796;2023-05-19T05:05:14;4.70;;;3.80;;
77733;SDS011;66902;41.720;44.796;2023-05-19T05:07:48;6.50;;;4.30;;
77733;SDS011;66902;41.720;44.796;2023-05-19T05:10:23;10.00;;;6.70;;
77733;SDS011;66902;41.720;44.796;2023-05-19T05:12:57;6.80;;;5.40;;
77733;SDS011;66902;41.720;44.796;2023-05-19T05:15:34;6.10;;;4.90;;
77733;SDS011;66902;41.720;44.796;2023-05-19T05:18:09;8.20;;;6.30;;
77733;SDS011;66902;41.720;44.796;2023-05-19T05:20:44;5.00;;;3.60;;
77733;SDS011;66902;41.720;44.796;2023-05-19T05:25:52;3.70;;;3.30;;
77733;SDS011;66902;41.720;44.796;2023-05-19T05:28:26;6.10;;;3.60;;
77733;SDS011;66902;41.720;44.796;2023-05-19T05:31:00;3.60;;;3.30;;
77733;SDS011;66902;41.720;44.796;2023-05-19T05:33:35;6.50;;;3.90;;
77733;SDS011;66902;41.720;44.796;2023-05-19T05:36:09;4.60;;;4.10;;
77733;SDS011;66902;41.720;44.796;2023-05-19T05:38:43;6.90;;;4.40;;
77733;SDS011;66902;41.720;44.796;2023-05-19T05:41:17;7.60;;;4.10;;
77733;SDS011;66902;41.720;44.796;2023-05-19T05:43:53;5.00;;;3.30;;
77733;SDS011;66902;41.720;44.796;2023-05-19T05:46:27;5.20;;;3.70;;
77733;SDS011;66902;41.720;44.796;2023-05-19T05:49:02;6.50;;;3.40;;
77733;SDS011;66902;41.720;44.796;2023-05-19T05:51:39;4.30;;;3.80;;
77733;SDS011;66902;41.720;44.796;2023-05-19T05:54:34;4.40;;;3.30;;
77733;SDS011;66902;41.720;44.796;2023-05-19T05:57:12;3.80;;;2.50;;
77733;SDS011;66902;41.720;44.796;2023-05-19T05:59:46;2.10;;;1.90;;
77733;SDS011;66902;41.720;44.796;2023-05-19T06:02:21;3.80;;;2.30;;
77733;SDS011;66902;41.720;44.796;2023-05-19T06:04:57;2.70;;;2.30;;
77733;SDS011;66902;41.720;44.796;2023-05-19T06:07:31;4.20;;;2.60;;
77733;SDS011;66902;41.720;44.796;2023-05-19T06:10:06;3.50;;;3.00;;
77733;SDS011;66902;41.720;44.796;2023-05-19T06:12:42;7.30;;;3.70;;
77733;SDS011;66902;41.720;44.796;2023-05-19T06:15:16;7.50;;;3.30;;
77733;SDS011;66902;41.720;44.796;2023-05-19T06:17:50;4.20;;;1.90;;
77733;SDS011;66902;41.720;44.796;2023-05-19T06:20:23;3.40;;;2.00;;
77733;SDS011;66902;41.720;44.796;2023-05-19T06:22:58;3.30;;;2.00;;
77733;SDS011;66902;41.720;44.796;2023-05-19T06:28:06;4.00;;;2.30;;
77733;SDS011;66902;41.720;44.796;2023-05-19T06:30:40;3.00;;;2.60;;
77733;SDS011;66902;41.720;44.796;2023-05-19T06:33:17;3.90;;;3.00;;
77733;SDS011;66902;41.720;44.796;2023-05-19T06:35:51;3.50;;;2.80;;
77733;SDS011;66902;41.720;44.796;2023-05-19T06:38:24;2.10;;;1.90;;
77733;SDS011;66902;41.720;44.796;2023-05-19T06:40:58;6.30;;;2.40;;
77733;SDS011;66902;41.720;44.796;2023-05-19T06:43:32;5.50;;;2.20;;
77733;SDS011;66902;41.720;44.796;2023-05-19T06:46:06;2.40;;;1.60;;
77733;SDS011;66902;41.720;44.796;2023-05-19T06:48:41;2.20;;;2.00;;
77733;SDS011;66902;41.720;44.796;2023-05-19T06:51:17;4.20;;;3.70;;
77733;SDS011;66902;41.720;44.796;2023-05-19T06:53:52;3.50;;;1.90;;
77733;SDS011;66902;41.720;44.796;2023-05-19T06:56:30;2.60;;;1.80;;
77733;SDS011;66902;41.720;44.796;2023-05-19T06:59:03;4.30;;;2.00;;
77733;SDS011;66902;41.720;44.796;2023-05-19T07:01:37;3.00;;;2.50;;
77733;SDS011;66902;41.720;44.796;2023-05-19T07:04:11;1.90;;;1.80;;
77733;SDS011;66902;41.720;44.796;2023-05-19T07:06:45;2.40;;;2.10;;
77733;SDS011;66902;41.720;44.796;2023-05-19T07:09:19;8.10;;;2.90;;
77733;SDS011;66902;41.720;44.796;2023-05-19T07:11:55;2.70;;;2.30;;
77733;SDS011;66902;41.720;44.796;2023-05-19T07:14:30;2.30;;;1.90;;
77733;SDS011;66902;41.720;44.796;2023-05-19T07:17:07;4.00;;;2.50;;
77733;SDS011;66902;41.720;44.796;2023-05-19T07:19:40;3.10;;;1.70;;
77733;SDS011;66902;41.720;44.796;2023-05-19T07:22:17;2.90;;;2.40;;
77733;SDS011;66902;41.720;44.796;2023-05-19T07:27:27;3.30;;;2.50;;
77733;SDS011;66902;41.720;44.796;2023-05-19T07:30:01;3.80;;;2.50;;
77733;SDS011;66902;41.720;44.796;2023-05-19T07:32:37;2.10;;;1.90;;
77733;SDS011;66902;41.720;44.796;2023-05-19T07:35:10;3.70;;;2.50;;
77733;SDS011;66902;41.720;44.796;2023-05-19T07:37:44;11.20;;;2.60;;
77733;SDS011;66902;41.720;44.796;2023-05-19T07:40:18;4.00;;;2.50;;
77733;SDS011;66902;41.720;44.796;2023-05-19T07:42:51;3.20;;;1.80;;
77733;SDS011;66902;41.720;44.796;2023-05-19T07:45:25;2.80;;;2.20;;
77733;SDS011;66902;41.720;44.796;2023-05-19T07:47:59;7.60;;;2.70;;
77733;SDS011;66902;41.720;44.796;2023-05-19T07:50:35;7.80;;;2.50;;
77733;SDS011;66902;41.720;44.796;2023-05-19T07:53:09;3.10;;;2.80;;
77733;SDS011;66902;41.720;44.796;2023-05-19T07:55:43;4.50;;;1.60;;
77733;SDS011;66902;41.720;44.796;2023-05-19T07:58:17;2.30;;;1.80;;
77733;SDS011;66902;41.720;44.796;2023-05-19T08:00:51;2.30;;;1.80;;
77733;SDS011;66902;41.720;44.796;2023-05-19T08:03:27;5.10;;;1.60;;
77733;SDS011;66902;41.720;44.796;2023-05-19T08:06:01;4.10;;;2.60;;
77733;SDS011;66902;41.720;44.796;2023-05-19T08:08:36;3.50;;;2.50;;
77733;SDS011;66902;41.720;44.796;2023-05-19T08:11:11;4.10;;;3.00;;
77733;SDS011;66902;41.720;44.796;2023-05-19T08:13:46;5.00;;;1.40;;
77733;SDS011;66902;41.720;44.796;2023-05-19T08:16:19;4.20;;;1.30;;
77733;SDS011;66902;41.720;44.796;2023-05-19T08:18:54;3.50;;;2.50;;
77733;SDS011;66902;41.720;44.796;2023-05-19T08:21:33;2.60;;;1.40;;
77733;SDS011;66902;41.720;44.796;2023-05-19T08:24:07;4.20;;;1.80;;
77733;SDS011;66902;41.720;44.796;2023-05-19T08:26:42;4.70;;;1.80;;
77733;SDS011;66902;41.720;44.796;2023-05-19T08:29:16;4.90;;;1.70;;
77733;SDS011;66902;41.720;44.796;2023-05-19T08:31:50;3.10;;;1.20;;
77733;SDS011;66902;41.720;44.796;2023-05-19T08:34:24;2.60;;;2.00;;
77733;SDS011;66902;41.720;44.796;2023-05-19T08:36:57;3.40;;;1.90;;
77733;SDS011;66902;41.720;44.796;2023-05-19T08:39:32;4.00;;;1.80;;
77733;SDS011;66902;41.720;44.796;2023-05-19T08:42:07;2.00;;;1.50;;
77733;SDS011;66902;41.720;44.796;2023-05-19T08:44:43;4.10;;;2.40;;
77733;SDS011;66902;41.720;44.796;2023-05-19T08:47:16;3.60;;;2.10;;
77733;SDS011;66902;41.720;44.796;2023-05-19T08:49:54;4.80;;;2.40;;
77733;SDS011;66902;41.720;44.796;2023-05-19T08:52:34;3.90;;;2.00;;
77733;SDS011;66902;41.720;44.796;2023-05-19T08:55:21;5.60;;;2.60;;
77733;SDS011;66902;41.720;44.796;2023-05-19T08:58:00;3.30;;;1.60;;
77733;SDS011;66902;41.720;44.796;2023-05-19T09:00:35;4.80;;;2.20;;
77733;SDS011;66902;41.720;44.796;2023-05-19T09:03:10;8.10;;;2.00;;
77733;SDS011;66902;41.720;44.796;2023-05-19T09:05:52;3.90;;;2.00;;
77733;SDS011;66902;41.720;44.796;2023-05-19T09:08:25;3.10;;;1.80;;
77733;SDS011;66902;41.720;44.796;2023-05-19T09:10:59;3.10;;;2.30;;
77733;SDS011;66902;41.720;44.796;2023-05-19T09:13:33;11.90;;;3.00;;
77733;SDS011;66902;41.720;44.796;2023-05-19T09:16:07;4.80;;;2.10;;
77733;SDS011;66902;41.720;44.796;2023-05-19T09:18:42;3.00;;;2.20;;
77733;SDS011;66902;41.720;44.796;2023-05-19T09:21:29;4.40;;;2.20;;
77733;SDS011;66902;41.720;44.796;2023-05-19T09:24:04;2.30;;;2.10;;
77733;SDS011;66902;41.720;44.796;2023-05-19T09:26:40;3.90;;;2.20;;
77733;SDS011;66902;41.720;44.796;2023-05-19T09:29:16;4.70;;;2.50;;
77733;SDS011;66902;41.720;44.796;2023-05-19T09:31:50;3.70;;;2.70;;
77733;SDS011;66902;41.720;44.796;2023-05-19T09:34:24;4.90;;;2.40;;
77733;SDS011;66902;41.720;44.796;2023-05-19T09:36:58;5.10;;;3.20;;
77733;SDS011;66902;41.720;44.796;2023-05-19T09:39:33;13.90;;;4.30;;
77733;SDS011;66902;41.720;44.796;2023-05-19T09:42:07;5.50;;;3.00;;
77733;SDS011;66902;41.720;44.796;2023-05-19T09:44:40;5.10;;;2.60;;
77733;SDS011;66902;41.720;44.796;2023-05-19T09:47:14;5.90;;;3.70;;
77733;SDS011;66902;41.720;44.796;2023-05-19T09:49:48;5.80;;;4.70;;
77733;SDS011;66902;41.720;44.796;2023-05-19T09:52:21;9.40;;;3.20;;
77733;SDS011;66902;41.720;44.796;2023-05-19T09:55:13;7.70;;;2.60;;
77733;SDS011;66902;41.720;44.796;2023-05-19T09:57:53;5.80;;;2.80;;
77733;SDS011;66902;41.720;44.796;2023-05-19T10:00:28;4.50;;;2.90;;
77733;SDS011;66902;41.720;44.796;2023-05-19T10:03:04;3.90;;;3.50;;
77733;SDS011;66902;41.720;44.796;2023-05-19T10:05:38;7.00;;;2.70;;
77733;SDS011;66902;41.720;44.796;2023-05-19T10:08:12;10.40;;;3.00;;
77733;SDS011;66902;41.720;44.796;2023-05-19T10:10:47;5.30;;;2.50;;
77733;SDS011;66902;41.720;44.796;2023-05-19T10:13:20;9.90;;;2.80;;
77733;SDS011;66902;41.720;44.796;2023-05-19T10:15:55;7.40;;;3.30;;
77733;SDS011;66902;41.720;44.796;2023-05-19T10:18:30;3.30;;;3.00;;
77733;SDS011;66902;41.720;44.796;2023-05-19T10:21:08;4.70;;;3.80;;
77733;SDS011;66902;41.720;44.796;2023-05-19T10:23:43;7.10;;;3.90;;
77733;SDS011;66902;41.720;44.796;2023-05-19T10:26:17;5.00;;;3.80;;
77733;SDS011;66902;41.720;44.796;2023-05-19T10:28:52;6.20;;;3.40;;
77733;SDS011;66902;41.720;44.796;2023-05-19T10:31:31;3.50;;;2.50;;
77733;SDS011;66902;41.720;44.796;2023-05-19T10:34:12;8.30;;;3.30;;
77733;SDS011;66902;41.720;44.796;2023-05-19T10:37:01;9.20;;;3.90;;
77733;SDS011;66902;41.720;44.796;2023-05-19T10:39:42;3.40;;;3.00;;
77733;SDS011;66902;41.720;44.796;2023-05-19T10:42:17;3.60;;;2.90;;
77733;SDS011;66902;41.720;44.796;2023-05-19T10:45:01;4.00;;;3.50;;
77733;SDS011;66902;41.720;44.796;2023-05-19T10:47:40;8.40;;;4.30;;
77733;SDS011;66902;41.720;44.796;2023-05-19T10:50:15;7.40;;;3.30;;
77733;SDS011;66902;41.720;44.796;2023-05-19T10:52:53;3.60;;;2.70;;
77733;SDS011;66902;41.720;44.796;2023-05-19T10:58:37;6.50;;;3.60;;
77733;SDS011;66902;41.720;44.796;2023-05-19T11:01:20;4.70;;;3.60;;
77733;SDS011;66902;41.720;44.796;2023-05-19T11:03:55;6.60;;;3.70;;
77733;SDS011;66902;41.720;44.796;2023-05-19T11:06:35;4.70;;;3.70;;
77733;SDS011;66902;41.720;44.796;2023-05-19T11:09:12;19.70;;;4.50;;
77733;SDS011;66902;41.720;44.796;2023-05-19T11:12:00;7.90;;;4.50;;
77733;SDS011;66902;41.720;44.796;2023-05-19T11:14:36;7.90;;;4.50;;
77733;SDS011;66902;41.720;44.796;2023-05-19T11:17:13;4.90;;;3.50;;
77733;SDS011;66902;41.720;44.796;2023-05-19T11:19:52;7.50;;;3.60;;
77733;SDS011;66902;41.720;44.796;2023-05-19T11:22:28;6.30;;;3.30;;
77733;SDS011;66902;41.720;44.796;2023-05-19T11:25:05;4.20;;;3.50;;
77733;SDS011;66902;41.720;44.796;2023-05-19T11:27:39;3.70;;;3.10;;
77733;SDS011;66902;41.720;44.796;2023-05-19T11:30:14;5.20;;;3.40;;
77733;SDS011;66902;41.720;44.796;2023-05-19T11:35:22;4.60;;;2.80;;
77733;SDS011;66902;41.720;44.796;2023-05-19T11:37:56;7.40;;;3.80;;
77733;SDS011;66902;41.720;44.796;2023-05-19T11:40:33;3.90;;;2.40;;
77733;SDS011;66902;41.720;44.796;2023-05-19T11:43:07;4.10;;;3.10;;
77733;SDS011;66902;41.720;44.796;2023-05-19T11:45:41;8.20;;;3.20;;
77733;SDS011;66902;41.720;44.796;2023-05-19T11:48:16;4.90;;;2.70;;
77733;SDS011;66902;41.720;44.796;2023-05-19T11:50:53;5.80;;;3.10;;
77733;SDS011;66902;41.720;44.796;2023-05-19T11:53:27;4.90;;;3.90;;
77733;SDS011;66902;41.720;44.796;2023-05-19T11:56:04;8.80;;;4.70;;
77733;SDS011;66902;41.720;44.796;2023-05-19T11:58:38;8.00;;;4.60;;
77733;SDS011;66902;41.720;44.796;2023-05-19T12:01:11;4.10;;;3.30;;
77733;SDS011;66902;41.720;44.796;2023-05-19T12:03:45;5.00;;;2.90;;
77733;SDS011;66902;41.720;44.796;2023-05-19T12:06:19;4.70;;;2.60;;
77733;SDS011;66902;41.720;44.796;2023-05-19T12:08:53;3.60;;;2.90;;
77733;SDS011;66902;41.720;44.796;2023-05-19T12:11:30;4.40;;;2.70;;
77733;SDS011;66902;41.720;44.796;2023-05-19T12:14:04;4.50;;;3.60;;
77733;SDS011;66902;41.720;44.796;2023-05-19T12:16:38;6.30;;;3.60;;
77733;SDS011;66902;41.720;44.796;2023-05-19T12:19:15;8.20;;;3.40;;
77733;SDS011;66902;41.720;44.796;2023-05-19T12:21:49;8.80;;;3.60;;
77733;SDS011;66902;41.720;44.796;2023-05-19T12:24:23;3.70;;;3.20;;
77733;SDS011;66902;41.720;44.796;2023-05-19T12:27:05;4.70;;;3.50;;
77733;SDS011;66902;41.720;44.796;2023-05-19T12:29:41;6.80;;;3.10;;
77733;SDS011;66902;41.720;44.796;2023-05-19T12:32:21;5.90;;;3.40;;
77733;SDS011;66902;41.720;44.796;2023-05-19T12:37:27;8.40;;;3.60;;
77733;SDS011;66902;41.720;44.796;2023-05-19T12:40:02;4.80;;;4.30;;
77733;SDS011;66902;41.720;44.796;2023-05-19T12:42:37;12.30;;;3.20;;
77733;SDS011;66902;41.720;44.796;2023-05-19T12:45:19;4.40;;;3.60;;
77733;SDS011;66902;41.720;44.796;2023-05-19T12:47:54;8.30;;;3.40;;
77733;SDS011;66902;41.720;44.796;2023-05-19T12:50:30;10.20;;;4.40;;
77733;SDS011;66902;41.720;44.796;2023-05-19T12:53:06;6.90;;;3.40;;
77733;SDS011;66902;41.720;44.796;2023-05-19T12:55:41;5.30;;;2.90;;
77733;SDS011;66902;41.720;44.796;2023-05-19T12:58:16;7.60;;;3.60;;
77733;SDS011;66902;41.720;44.796;2023-05-19T13:00:57;3.90;;;3.00;;
77733;SDS011;66902;41.720;44.796;2023-05-19T13:03:38;5.40;;;4.20;;
77733;SDS011;66902;41.720;44.796;2023-05-19T13:06:18;8.20;;;5.30;;
77733;SDS011;66902;41.720;44.796;2023-05-19T13:08:52;9.00;;;4.80;;
77733;SDS011;66902;41.720;44.796;2023-05-19T13:11:26;5.80;;;3.80;;
77733;SDS011;66902;41.720;44.796;2023-05-19T13:14:00;12.80;;;4.20;;
77733;SDS011;66902;41.720;44.796;2023-05-19T13:16:34;5.50;;;3.60;;
77733;SDS011;66902;41.720;44.796;2023-05-19T13:19:11;4.60;;;4.00;;
77733;SDS011;66902;41.720;44.796;2023-05-19T13:21:53;8.80;;;4.10;;
77733;SDS011;66902;41.720;44.796;2023-05-19T13:24:27;8.40;;;3.80;;
77733;SDS011;66902;41.720;44.796;2023-05-19T13:27:04;5.70;;;2.50;;
77733;SDS011;66902;41.720;44.796;2023-05-19T13:29:40;10.30;;;3.90;;
77733;SDS011;66902;41.720;44.796;2023-05-19T13:32:15;5.60;;;4.00;;
77733;SDS011;66902;41.720;44.796;2023-05-19T13:34:49;4.70;;;3.80;;
77733;SDS011;66902;41.720;44.796;2023-05-19T13:37:23;9.60;;;4.10;;
77733;SDS011;66902;41.720;44.796;2023-05-19T13:39:57;6.90;;;3.80;;
77733;SDS011;66902;41.720;44.796;2023-05-19T13:42:32;10.30;;;4.60;;
77733;SDS011;66902;41.720;44.796;2023-05-19T13:45:06;12.60;;;4.60;;
77733;SDS011;66902;41.720;44.796;2023-05-19T13:47:41;14.70;;;6.80;;
77733;SDS011;66902;41.720;44.796;2023-05-19T13:50:15;10.60;;;4.70;;
77733;SDS011;66902;41.720;44.796;2023-05-19T13:52:49;15.90;;;9.50;;
77733;SDS011;66902;41.720;44.796;2023-05-19T13:55:22;9.90;;;5.20;;
77733;SDS011;66902;41.720;44.796;2023-05-19T13:57:56;7.90;;;3.90;;
77733;SDS011;66902;41.720;44.796;2023-05-19T14:00:30;8.40;;;4.10;;
77733;SDS011;66902;41.720;44.796;2023-05-19T14:03:05;6.10;;;3.70;;
77733;SDS011;66902;41.720;44.796;2023-05-19T14:05:39;10.10;;;4.50;;
77733;SDS011;66902;41.720;44.796;2023-05-19T14:08:13;9.20;;;5.90;;
77733;SDS011;66902;41.720;44.796;2023-05-19T14:10:46;7.70;;;4.80;;
77733;SDS011;66902;41.720;44.796;2023-05-19T14:13:22;8.90;;;5.70;;
77733;SDS011;66902;41.720;44.796;2023-05-19T14:16:08;14.90;;;3.60;;
77733;SDS011;66902;41.720;44.796;2023-05-19T14:18:43;7.10;;;4.70;;
77733;SDS011;66902;41.720;44.796;2023-05-19T14:21:17;10.20;;;5.80;;
77733;SDS011;66902;41.720;44.796;2023-05-19T14:23:50;12.40;;;5.30;;
77733;SDS011;66902;41.720;44.796;2023-05-19T14:26:24;6.10;;;4.00;;
77733;SDS011;66902;41.720;44.796;2023-05-19T14:28:58;6.50;;;3.60;;
77733;SDS011;66902;41.720;44.796;2023-05-19T14:31:33;5.90;;;4.20;;
77733;SDS011;66902;41.720;44.796;2023-05-19T14:34:09;5.90;;;5.00;;
77733;SDS011;66902;41.720;44.796;2023-05-19T14:36:46;9.20;;;4.70;;
77733;SDS011;66902;41.720;44.796;2023-05-19T14:39:20;4.40;;;3.50;;
77733;SDS011;66902;41.720;44.796;2023-05-19T14:41:54;7.00;;;4.30;;
77733;SDS011;66902;41.720;44.796;2023-05-19T14:44:30;6.10;;;3.90;;
77733;SDS011;66902;41.720;44.796;2023-05-19T14:47:04;6.50;;;3.90;;
77733;SDS011;66902;41.720;44.796;2023-05-19T14:49:40;7.30;;;5.00;;
77733;SDS011;66902;41.720;44.796;2023-05-19T14:52:14;6.80;;;4.70;;
77733;SDS011;66902;41.720;44.796;2023-05-19T14:54:50;7.90;;;4.40;;
77733;SDS011;66902;41.720;44.796;2023-05-19T14:57:25;9.50;;;4.10;;
77733;SDS011;66902;41.720;44.796;2023-05-19T14:59:58;5.50;;;3.90;;
77733;SDS011;66902;41.720;44.796;2023-05-19T15:02:32;10.90;;;6.00;;
77733;SDS011;66902;41.720;44.796;2023-05-19T15:05:08;11.40;;;5.20;;
77733;SDS011;66902;41.720;44.796;2023-05-19T15:07:42;11.90;;;5.00;;
77733;SDS011;66902;41.720;44.796;2023-05-19T15:10:15;5.60;;;4.50;;
77733;SDS011;66902;41.720;44.796;2023-05-19T15:12:49;11.00;;;4.80;;
77733;SDS011;66902;41.720;44.796;2023-05-19T15:15:23;5.90;;;5.30;;
77733;SDS011;66902;41.720;44.796;2023-05-19T15:17:56;9.30;;;5.70;;
77733;SDS011;66902;41.720;44.796;2023-05-19T15:20:30;13.30;;;7.60;;
77733;SDS011;66902;41.720;44.796;2023-05-19T15:23:05;12.40;;;7.90;;
77733;SDS011;66902;41.720;44.796;2023-05-19T15:25:38;11.30;;;8.60;;
77733;SDS011;66902;41.720;44.796;2023-05-19T15:28:14;13.20;;;7.80;;
77733;SDS011;66902;41.720;44.796;2023-05-19T15:30:47;11.40;;;9.50;;
77733;SDS011;66902;41.720;44.796;2023-05-19T15:33:25;14.20;;;10.70;;
77733;SDS011;66902;41.720;44.796;2023-05-19T15:36:02;21.60;;;11.50;;
77733;SDS011;66902;41.720;44.796;2023-05-19T15:38:37;11.40;;;9.10;;
77733;SDS011;66902;41.720;44.796;2023-05-19T15:41:11;10.50;;;9.50;;